sensor_id;sensor_type;location;lat;lon;timestamp;pressure;altitude;pressure_sealevel;temperature;humidity
250;BME280;109;19.806;-70.704;2023-02-15T00:01:47;101690.28;;;23.45;61.10
250;BME280;109;19.806;-70.704;2023-02-15T00:04:16;101695.53;;;23.48;61.49
250;BME280;109;19.806;-70.704;2023-02-15T00:06:42;101694.97;;;23.38;61.37
250;BME280;109;19.806;-70.704;2023-02-15T00:09:10;101704.59;;;23.42;61.38
250;BME280;109;19.806;-70.704;2023-02-15T00:11:44;101697.06;;;23.55;60.83
250;BME280;109;19.806;-70.704;2023-02-15T00:14:23;101708.56;;;23.58;60.74
250;BME280;109;19.806;-70.704;2023-02-15T00:16:51;101706.78;;;23.57;60.10
250;BME280;109;19.806;-70.704;2023-02-15T00:19:25;101705.88;;;23.58;60.34
250;BME280;109;19.806;-70.704;2023-02-15T00:21:51;101711.06;;;23.63;60.37
250;BME280;109;19.806;-70.704;2023-02-15T00:24:25;101714.56;;;23.65;60.13
250;BME280;109;19.806;-70.704;2023-02-15T00:26:52;101718.06;;;23.67;59.90
250;BME280;109;19.806;-70.704;2023-02-15T00:29:25;101720.81;;;23.65;60.18
250;BME280;109;19.806;-70.704;2023-02-15T00:31:51;101724.25;;;23.67;60.85
250;BME280;109;19.806;-70.704;2023-02-15T00:34:32;101722.75;;;23.60;60.39
250;BME280;109;19.806;-70.704;2023-02-15T00:37:12;101728.88;;;23.64;60.55
250;BME280;109;19.806;-70.704;2023-02-15T00:40:07;101726.84;;;23.70;60.84
250;BME280;109;19.806;-70.704;2023-02-15T00:42:40;101735.69;;;23.73;61.02
250;BME280;109;19.806;-70.704;2023-02-15T00:45:20;101735.13;;;23.63;60.88
250;BME280;109;19.806;-70.704;2023-02-15T00:47:47;101737.25;;;23.52;61.29
250;BME280;109;19.806;-70.704;2023-02-15T00:50:28;101736.06;;;23.34;61.33
250;BME280;109;19.806;-70.704;2023-02-15T00:53:01;101738.06;;;23.27;61.39
250;BME280;109;19.806;-70.704;2023-02-15T00:55:41;101744.50;;;23.20;61.88
250;BME280;109;19.806;-70.704;2023-02-15T00:58:08;101758.00;;;23.16;62.13
250;BME280;109;19.806;-70.704;2023-02-15T01:00:49;101755.56;;;23.08;61.96
250;BME280;109;19.806;-70.704;2023-02-15T01:03:16;101750.31;;;23.05;62.51
250;BME280;109;19.806;-70.704;2023-02-15T01:05:58;101761.22;;;22.99;62.31
250;BME280;109;19.806;-70.704;2023-02-15T01:08:38;101766.78;;;22.90;62.62
250;BME280;109;19.806;-70.704;2023-02-15T01:11:06;101761.75;;;22.79;62.87
250;BME280;109;19.806;-70.704;2023-02-15T01:13:50;101765.19;;;22.84;62.86
250;BME280;109;19.806;-70.704;2023-02-15T01:16:26;101763.38;;;22.85;62.95
250;BME280;109;19.806;-70.704;2023-02-15T01:19:07;101768.94;;;22.77;63.03
250;BME280;109;19.806;-70.704;2023-02-15T01:21:33;101770.63;;;22.80;63.22
250;BME280;109;19.806;-70.704;2023-02-15T01:24:14;101773.50;;;22.74;63.22
250;BME280;109;19.806;-70.704;2023-02-15T01:26:40;101773.91;;;22.60;63.03
250;BME280;109;19.806;-70.704;2023-02-15T01:29:21;101782.00;;;22.57;63.34
250;BME280;109;19.806;-70.704;2023-02-15T01:31:47;101780.28;;;22.54;63.55
250;BME280;109;19.806;-70.704;2023-02-15T01:34:34;101790.38;;;22.43;63.54
250;BME280;109;19.806;-70.704;2023-02-15T01:37:14;101786.84;;;22.43;63.91
250;BME280;109;19.806;-70.704;2023-02-15T01:39:55;101785.19;;;22.37;63.97
250;BME280;109;19.806;-70.704;2023-02-15T01:42:23;101794.91;;;22.40;63.66
250;BME280;109;19.806;-70.704;2023-02-15T01:45:25;101793.28;;;22.34;64.14
250;BME280;109;19.806;-70.704;2023-02-15T01:48:25;101796.66;;;22.41;64.00
250;BME280;109;19.806;-70.704;2023-02-15T01:51:07;101798.47;;;22.40;63.75
250;BME280;109;19.806;-70.704;2023-02-15T01:54:04;101799.28;;;22.42;63.66
250;BME280;109;19.806;-70.704;2023-02-15T01:56:39;101809.06;;;22.43;63.68
250;BME280;109;19.806;-70.704;2023-02-15T01:59:22;101797.59;;;22.40;64.18
250;BME280;109;19.806;-70.704;2023-02-15T02:01:51;101802.13;;;22.36;63.78
250;BME280;109;19.806;-70.704;2023-02-15T02:04:38;101801.56;;;22.23;64.19
250;BME280;109;19.806;-70.704;2023-02-15T02:07:14;101806.69;;;22.31;63.65
250;BME280;109;19.806;-70.704;2023-02-15T02:09:55;101806.19;;;22.17;64.18
250;BME280;109;19.806;-70.704;2023-02-15T02:12:23;101812.28;;;22.22;63.81
250;BME280;109;19.806;-70.704;2023-02-15T02:15:04;101804.16;;;22.25;63.75
250;BME280;109;19.806;-70.704;2023-02-15T02:20:52;101814.97;;;22.20;63.82
250;BME280;109;19.806;-70.704;2023-02-15T02:41:48;101813.19;;;22.21;64.15
250;BME280;109;19.806;-70.704;2023-02-15T02:44:46;101814.09;;;22.20;64.72
250;BME280;109;19.806;-70.704;2023-02-15T02:47:31;101815.41;;;22.04;64.94
250;BME280;109;19.806;-70.704;2023-02-15T02:50:22;101829.25;;;22.18;64.54
250;BME280;109;19.806;-70.704;2023-02-15T02:52:57;101819.53;;;22.15;64.63
250;BME280;109;19.806;-70.704;2023-02-15T02:55:51;101816.91;;;22.14;64.72
250;BME280;109;19.806;-70.704;2023-02-15T02:58:51;101821.34;;;22.15;64.90
250;BME280;109;19.806;-70.704;2023-02-15T03:01:37;101817.50;;;22.25;64.44
250;BME280;109;19.806;-70.704;2023-02-15T03:04:22;101821.97;;;22.24;64.60
250;BME280;109;19.806;-70.704;2023-02-15T03:06:58;101819.38;;;22.23;64.66
250;BME280;109;19.806;-70.704;2023-02-15T03:09:44;101827.38;;;22.23;64.51
250;BME280;109;19.806;-70.704;2023-02-15T03:12:26;101829.94;;;22.26;64.47
250;BME280;109;19.806;-70.704;2023-02-15T03:15:16;101830.84;;;22.25;64.41
250;BME280;109;19.806;-70.704;2023-02-15T03:17:57;101830.91;;;22.23;64.44
250;BME280;109;19.806;-70.704;2023-02-15T03:20:40;101831.09;;;22.16;64.70
250;BME280;109;19.806;-70.704;2023-02-15T03:23:11;101836.59;;;22.10;64.44
250;BME280;109;19.806;-70.704;2023-02-15T03:26:04;101834.84;;;22.09;64.64
250;BME280;109;19.806;-70.704;2023-02-15T03:28:46;101833.19;;;22.03;64.69
250;BME280;109;19.806;-70.704;2023-02-15T03:31:26;101830.25;;;22.14;64.63
250;BME280;109;19.806;-70.704;2023-02-15T03:34:15;101828.63;;;22.08;64.70
250;BME280;109;19.806;-70.704;2023-02-15T03:39:55;101837.63;;;22.04;64.87
250;BME280;109;19.806;-70.704;2023-02-15T03:42:55;101836.03;;;21.97;64.97
250;BME280;109;19.806;-70.704;2023-02-15T03:45:40;101828.94;;;21.96;65.10
250;BME280;109;19.806;-70.704;2023-02-15T03:48:39;101831.78;;;21.88;64.96
250;BME280;109;19.806;-70.704;2023-02-15T03:51:23;101822.63;;;21.99;64.94
250;BME280;109;19.806;-70.704;2023-02-15T03:54:17;101832.50;;;21.97;64.94
250;BME280;109;19.806;-70.704;2023-02-15T03:57:22;101834.03;;;22.05;64.79
250;BME280;109;19.806;-70.704;2023-02-15T04:00:24;101828.91;;;21.98;65.19
250;BME280;109;19.806;-70.704;2023-02-15T04:03:23;101826.31;;;21.94;64.95
250;BME280;109;19.806;-70.704;2023-02-15T04:06:05;101825.59;;;21.86;64.83
250;BME280;109;19.806;-70.704;2023-02-15T04:08:45;101826.44;;;21.88;64.55
250;BME280;109;19.806;-70.704;2023-02-15T04:11:36;101829.97;;;21.90;64.85
250;BME280;109;19.806;-70.704;2023-02-15T04:14:16;101815.66;;;21.94;64.84
250;BME280;109;19.806;-70.704;2023-02-15T04:17:08;101815.97;;;21.82;64.73
250;BME280;109;19.806;-70.704;2023-02-15T04:19:49;101817.88;;;21.76;64.63
250;BME280;109;19.806;-70.704;2023-02-15T04:22:40;101810.69;;;21.79;64.90
250;BME280;109;19.806;-70.704;2023-02-15T04:25:38;101816.53;;;21.58;65.09
250;BME280;109;19.806;-70.704;2023-02-15T04:28:10;101811.94;;;21.63;65.49
250;BME280;109;19.806;-70.704;2023-02-15T04:30:50;101806.66;;;21.62;65.27
250;BME280;109;19.806;-70.704;2023-02-15T04:33:37;101813.69;;;21.64;65.31
250;BME280;109;19.806;-70.704;2023-02-15T04:36:17;101805.03;;;21.56;65.07
250;BME280;109;19.806;-70.704;2023-02-15T04:38:57;101810.38;;;21.54;64.94
250;BME280;109;19.806;-70.704;2023-02-15T04:41:23;101807.72;;;21.54;65.49
250;BME280;109;19.806;-70.704;2023-02-15T04:44:03;101802.44;;;21.51;65.27
250;BME280;109;19.806;-70.704;2023-02-15T04:46:29;101797.31;;;21.44;65.12
250;BME280;109;19.806;-70.704;2023-02-15T04:49:11;101796.38;;;21.46;65.31
250;BME280;109;19.806;-70.704;2023-02-15T04:51:37;101803.50;;;21.46;65.12
250;BME280;109;19.806;-70.704;2023-02-15T04:54:17;101801.09;;;21.34;65.23
250;BME280;109;19.806;-70.704;2023-02-15T04:56:43;101791.44;;;21.30;65.72
250;BME280;109;19.806;-70.704;2023-02-15T04:59:23;101803.94;;;21.26;65.85
250;BME280;109;19.806;-70.704;2023-02-15T05:01:56;101805.63;;;21.30;65.35
250;BME280;109;19.806;-70.704;2023-02-15T05:04:37;101803.88;;;21.29;65.83
250;BME280;109;19.806;-70.704;2023-02-15T05:07:03;101799.66;;;21.19;65.92
250;BME280;109;19.806;-70.704;2023-02-15T05:09:43;101793.34;;;21.23;65.60
250;BME280;109;19.806;-70.704;2023-02-15T05:12:09;101788.75;;;21.31;65.46
250;BME280;109;19.806;-70.704;2023-02-15T05:14:49;101790.72;;;21.21;65.71
250;BME280;109;19.806;-70.704;2023-02-15T05:17:15;101789.13;;;21.14;66.10
250;BME280;109;19.806;-70.704;2023-02-15T05:19:56;101791.75;;;21.16;65.56
250;BME280;109;19.806;-70.704;2023-02-15T05:22:22;101787.38;;;21.10;65.93
250;BME280;109;19.806;-70.704;2023-02-15T05:25:02;101785.66;;;21.08;65.83
250;BME280;109;19.806;-70.704;2023-02-15T05:28:00;101783.06;;;21.06;66.05
250;BME280;109;19.806;-70.704;2023-02-15T05:33:49;101778.91;;;20.93;65.82
250;BME280;109;19.806;-70.704;2023-02-15T05:36:29;101780.47;;;21.03;65.95
250;BME280;109;19.806;-70.704;2023-02-15T05:39:10;101777.84;;;21.00;66.13
250;BME280;109;19.806;-70.704;2023-02-15T05:41:36;101772.75;;;20.91;65.79
250;BME280;109;19.806;-70.704;2023-02-15T05:44:16;101775.47;;;20.88;65.96
250;BME280;109;19.806;-70.704;2023-02-15T05:46:42;101770.13;;;20.88;66.41
250;BME280;109;19.806;-70.704;2023-02-15T05:49:22;101775.50;;;20.86;65.95
250;BME280;109;19.806;-70.704;2023-02-15T05:51:48;101761.38;;;20.83;66.42
250;BME280;109;19.806;-70.704;2023-02-15T05:54:29;101763.06;;;20.87;66.27
250;BME280;109;19.806;-70.704;2023-02-15T05:56:55;101757.69;;;20.90;65.84
250;BME280;109;19.806;-70.704;2023-02-15T05:59:35;101756.91;;;20.83;66.14
250;BME280;109;19.806;-70.704;2023-02-15T06:02:01;101747.16;;;20.84;66.02
250;BME280;109;19.806;-70.704;2023-02-15T06:04:41;101748.03;;;20.84;65.78
250;BME280;109;19.806;-70.704;2023-02-15T06:07:07;101738.28;;;20.83;65.90
250;BME280;109;19.806;-70.704;2023-02-15T06:09:48;101736.47;;;20.85;65.76
250;BME280;109;19.806;-70.704;2023-02-15T06:12:14;101741.97;;;20.78;66.22
250;BME280;109;19.806;-70.704;2023-02-15T06:14:54;101740.13;;;20.81;65.64
250;BME280;109;19.806;-70.704;2023-02-15T06:17:20;101742.84;;;20.80;66.08
250;BME280;109;19.806;-70.704;2023-02-15T06:20:08;101737.53;;;20.78;65.85
250;BME280;109;19.806;-70.704;2023-02-15T06:22:41;101738.53;;;20.73;66.32
250;BME280;109;19.806;-70.704;2023-02-15T06:25:22;101733.16;;;20.76;66.03
250;BME280;109;19.806;-70.704;2023-02-15T06:27:50;101741.13;;;20.76;65.75
250;BME280;109;19.806;-70.704;2023-02-15T06:30:30;101731.44;;;20.72;65.95
250;BME280;109;19.806;-70.704;2023-02-15T06:32:56;101742.16;;;20.69;65.77
250;BME280;109;19.806;-70.704;2023-02-15T06:35:42;101733.31;;;20.68;66.17
250;BME280;109;19.806;-70.704;2023-02-15T06:38:22;101735.88;;;20.73;65.78
250;BME280;109;19.806;-70.704;2023-02-15T06:41:03;101732.28;;;20.75;65.95
250;BME280;109;19.806;-70.704;2023-02-15T06:43:43;101729.66;;;20.72;65.61
250;BME280;109;19.806;-70.704;2023-02-15T06:46:09;101727.88;;;20.73;65.82
250;BME280;109;19.806;-70.704;2023-02-15T06:48:56;101727.19;;;20.65;65.86
250;BME280;109;19.806;-70.704;2023-02-15T06:51:30;101734.34;;;20.61;65.94
250;BME280;109;19.806;-70.704;2023-02-15T06:54:10;101725.47;;;20.62;65.69
250;BME280;109;19.806;-70.704;2023-02-15T06:56:36;101736.28;;;20.55;66.20
250;BME280;109;19.806;-70.704;2023-02-15T06:59:17;101723.06;;;20.50;65.87
250;BME280;109;19.806;-70.704;2023-02-15T07:01:43;101728.16;;;20.61;66.20
250;BME280;109;19.806;-70.704;2023-02-15T07:04:23;101725.63;;;20.55;66.25
250;BME280;109;19.806;-70.704;2023-02-15T07:06:49;101722.03;;;20.56;66.19
250;BME280;109;19.806;-70.704;2023-02-15T07:09:29;101723.75;;;20.58;66.22
250;BME280;109;19.806;-70.704;2023-02-15T07:11:55;101717.69;;;20.53;65.76
250;BME280;109;19.806;-70.704;2023-02-15T07:14:54;101716.56;;;20.63;65.67
250;BME280;109;19.806;-70.704;2023-02-15T07:17:20;101714.81;;;20.62;65.62
250;BME280;109;19.806;-70.704;2023-02-15T07:20:06;101709.50;;;20.62;65.66
250;BME280;109;19.806;-70.704;2023-02-15T07:22:48;101709.50;;;20.62;65.95
250;BME280;109;19.806;-70.704;2023-02-15T07:25:28;101711.28;;;20.62;66.04
250;BME280;109;19.806;-70.704;2023-02-15T07:28:02;101713.06;;;20.61;65.72
250;BME280;109;19.806;-70.704;2023-02-15T07:30:43;101708.84;;;20.52;65.54
250;BME280;109;19.806;-70.704;2023-02-15T07:33:09;101718.59;;;20.52;65.84
250;BME280;109;19.806;-70.704;2023-02-15T07:36:06;101708.81;;;20.54;65.62
250;BME280;109;19.806;-70.704;2023-02-15T07:38:47;101713.28;;;20.50;65.59
250;BME280;109;19.806;-70.704;2023-02-15T07:41:14;101712.41;;;20.50;66.00
250;BME280;109;19.806;-70.704;2023-02-15T07:43:56;101716.03;;;20.44;65.93
250;BME280;109;19.806;-70.704;2023-02-15T07:46:22;101715.38;;;20.33;66.23
250;BME280;109;19.806;-70.704;2023-02-15T07:49:09;101707.47;;;20.30;66.27
250;BME280;109;19.806;-70.704;2023-02-15T07:51:43;101714.53;;;20.31;66.20
250;BME280;109;19.806;-70.704;2023-02-15T07:54:23;101722.41;;;20.37;66.29
250;BME280;109;19.806;-70.704;2023-02-15T07:56:49;101717.13;;;20.34;66.29
250;BME280;109;19.806;-70.704;2023-02-15T07:59:29;101719.81;;;20.33;66.03
250;BME280;109;19.806;-70.704;2023-02-15T08:01:55;101720.59;;;20.39;65.96
250;BME280;109;19.806;-70.704;2023-02-15T08:04:36;101712.63;;;20.39;66.07
250;BME280;109;19.806;-70.704;2023-02-15T08:07:02;101719.75;;;20.37;65.90
250;BME280;109;19.806;-70.704;2023-02-15T08:09:42;101716.22;;;20.35;65.74
250;BME280;109;19.806;-70.704;2023-02-15T08:12:08;101713.75;;;20.28;66.10
250;BME280;109;19.806;-70.704;2023-02-15T08:14:48;101719.41;;;20.08;66.24
250;BME280;109;19.806;-70.704;2023-02-15T08:17:14;101717.53;;;20.14;66.12
250;BME280;109;19.806;-70.704;2023-02-15T08:19:56;101707.66;;;20.21;66.40
250;BME280;109;19.806;-70.704;2023-02-15T08:22:22;101712.97;;;20.21;66.19
250;BME280;109;19.806;-70.704;2023-02-15T08:25:10;101713.00;;;20.18;66.38
250;BME280;109;19.806;-70.704;2023-02-15T08:27:44;101721.06;;;20.15;66.70
250;BME280;109;19.806;-70.704;2023-02-15T08:30:24;101713.84;;;20.22;66.05
250;BME280;109;19.806;-70.704;2023-02-15T08:32:50;101714.03;;;20.12;66.51
250;BME280;109;19.806;-70.704;2023-02-15T08:35:37;101721.16;;;20.10;66.43
250;BME280;109;19.806;-70.704;2023-02-15T08:38:17;101723.72;;;20.15;66.49
250;BME280;109;19.806;-70.704;2023-02-15T08:40:57;101721.13;;;20.12;66.38
250;BME280;109;19.806;-70.704;2023-02-15T08:43:37;101725.53;;;20.13;66.24
250;BME280;109;19.806;-70.704;2023-02-15T08:46:08;101728.25;;;20.10;66.24
250;BME280;109;19.806;-70.704;2023-02-15T08:48:49;101729.81;;;20.20;66.13
250;BME280;109;19.806;-70.704;2023-02-15T08:51:43;101730.91;;;20.10;66.46
250;BME280;109;19.806;-70.704;2023-02-15T08:54:24;101728.19;;;20.13;66.17
250;BME280;109;19.806;-70.704;2023-02-15T08:56:50;101742.38;;;20.13;66.39
250;BME280;109;19.806;-70.704;2023-02-15T08:59:31;101748.56;;;20.14;66.20
250;BME280;109;19.806;-70.704;2023-02-15T09:01:57;101743.09;;;20.22;66.19
250;BME280;109;19.806;-70.704;2023-02-15T09:04:37;101749.34;;;20.17;66.36
250;BME280;109;19.806;-70.704;2023-02-15T09:07:04;101752.97;;;20.15;66.01
250;BME280;109;19.806;-70.704;2023-02-15T09:09:45;101750.31;;;20.15;66.11
250;BME280;109;19.806;-70.704;2023-02-15T09:12:12;101745.94;;;20.12;66.29
250;BME280;109;19.806;-70.704;2023-02-15T09:14:52;101750.31;;;20.15;66.17
250;BME280;109;19.806;-70.704;2023-02-15T09:17:19;101747.78;;;20.07;66.38
250;BME280;109;19.806;-70.704;2023-02-15T09:19:58;101752.13;;;20.13;66.24
250;BME280;109;19.806;-70.704;2023-02-15T09:22:25;101748.59;;;20.12;66.20
250;BME280;109;19.806;-70.704;2023-02-15T09:25:06;101760.06;;;20.14;65.88
250;BME280;109;19.806;-70.704;2023-02-15T09:27:32;101752.94;;;20.16;65.69
250;BME280;109;19.806;-70.704;2023-02-15T09:30:13;101762.81;;;20.08;66.12
250;BME280;109;19.806;-70.704;2023-02-15T09:32:40;101756.63;;;20.08;66.19
250;BME280;109;19.806;-70.704;2023-02-15T09:35:27;101771.88;;;19.98;66.69
250;BME280;109;19.806;-70.704;2023-02-15T09:38:00;101768.41;;;19.93;66.70
250;BME280;109;19.806;-70.704;2023-02-15T09:47:00;101774.56;;;19.97;66.36
250;BME280;109;19.806;-70.704;2023-02-15T10:13:40;101807.97;;;20.11;65.40
250;BME280;109;19.806;-70.704;2023-02-15T10:16:47;101809.78;;;20.08;65.57
250;BME280;109;19.806;-70.704;2023-02-15T10:27:06;101820.25;;;20.17;65.77
250;BME280;109;19.806;-70.704;2023-02-15T10:29:37;101827.41;;;20.13;65.50
250;BME280;109;19.806;-70.704;2023-02-15T10:32:22;101834.38;;;20.21;65.47
250;BME280;109;19.806;-70.704;2023-02-15T10:36:08;101836.16;;;20.18;65.52
250;BME280;109;19.806;-70.704;2023-02-15T10:44:41;101843.13;;;20.27;65.37
250;BME280;109;19.806;-70.704;2023-02-15T11:01:37;101852.91;;;20.25;65.59
250;BME280;109;19.806;-70.704;2023-02-15T11:06:58;101854.44;;;20.38;65.00
250;BME280;109;19.806;-70.704;2023-02-15T11:09:36;101861.53;;;20.38;65.00
250;BME280;109;19.806;-70.704;2023-02-15T11:12:12;101867.63;;;20.43;65.08
250;BME280;109;19.806;-70.704;2023-02-15T11:14:43;101868.56;;;20.42;64.98
250;BME280;109;19.806;-70.704;2023-02-15T11:17:21;101864.06;;;20.45;65.35
250;BME280;109;19.806;-70.704;2023-02-15T11:22:26;101872.84;;;20.52;66.19
250;BME280;109;19.806;-70.704;2023-02-15T11:24:53;101878.25;;;20.44;65.64
250;BME280;109;19.806;-70.704;2023-02-15T11:27:23;101880.88;;;20.47;65.91
250;BME280;109;19.806;-70.704;2023-02-15T11:30:21;101887.09;;;20.45;65.96
250;BME280;109;19.806;-70.704;2023-02-15T11:32:53;101889.72;;;20.49;65.78
250;BME280;109;19.806;-70.704;2023-02-15T11:35:27;101887.28;;;20.36;65.97
250;BME280;109;19.806;-70.704;2023-02-15T11:38:20;101890.66;;;20.44;66.29
250;BME280;109;19.806;-70.704;2023-02-15T11:40:54;101887.22;;;20.40;66.59
250;BME280;109;19.806;-70.704;2023-02-15T11:45:58;101894.91;;;20.56;66.42
250;BME280;109;19.806;-70.704;2023-02-15T11:48:24;101901.03;;;20.61;66.36
250;BME280;109;19.806;-70.704;2023-02-15T11:50:51;101907.28;;;20.60;66.40
250;BME280;109;19.806;-70.704;2023-02-15T11:53:20;101906.59;;;20.45;66.86
250;BME280;109;19.806;-70.704;2023-02-15T11:55:50;101915.47;;;20.44;66.84
250;BME280;109;19.806;-70.704;2023-02-15T12:01:46;101932.28;;;20.46;67.98
250;BME280;109;19.806;-70.704;2023-02-15T12:03:59;101945.34;;;20.63;68.22
250;BME280;109;19.806;-70.704;2023-02-15T12:06:30;101940.22;;;20.52;68.83
250;BME280;109;19.806;-70.704;2023-02-15T12:09:28;101944.25;;;20.75;69.41
250;BME280;109;19.806;-70.704;2023-02-15T12:14:53;101940.94;;;20.61;69.68
250;BME280;109;19.806;-70.704;2023-02-15T12:17:48;101946.44;;;20.51;69.45
250;BME280;109;19.806;-70.704;2023-02-15T12:23:00;101942.06;;;20.95;69.08
250;BME280;109;19.806;-70.704;2023-02-15T12:26:03;101948.22;;;20.99;69.00
250;BME280;109;19.806;-70.704;2023-02-15T12:28:38;101951.50;;;21.14;68.96
250;BME280;109;19.806;-70.704;2023-02-15T12:31:20;101955.41;;;21.41;68.63
250;BME280;109;19.806;-70.704;2023-02-15T12:33:49;101950.41;;;21.24;68.04
250;BME280;109;19.806;-70.704;2023-02-15T12:36:31;101952.97;;;21.31;68.52
250;BME280;109;19.806;-70.704;2023-02-15T12:41:56;101956.97;;;21.50;67.17
250;BME280;109;19.806;-70.704;2023-02-15T12:47:18;101951.66;;;21.50;66.86
250;BME280;109;19.806;-70.704;2023-02-15T12:52:30;101953.00;;;21.29;65.93
250;BME280;109;19.806;-70.704;2023-02-15T12:55:11;101964.50;;;21.31;65.36
250;BME280;109;19.806;-70.704;2023-02-15T12:57:43;101961.69;;;21.37;64.70
250;BME280;109;19.806;-70.704;2023-02-15T13:02:48;101963.75;;;21.66;64.91
250;BME280;109;19.806;-70.704;2023-02-15T13:05:35;101968.63;;;21.87;64.71
250;BME280;109;19.806;-70.704;2023-02-15T13:11:04;101965.78;;;21.97;63.40
250;BME280;109;19.806;-70.704;2023-02-15T13:13:31;101967.53;;;21.98;63.28
250;BME280;109;19.806;-70.704;2023-02-15T13:16:02;101971.09;;;21.97;62.88
250;BME280;109;19.806;-70.704;2023-02-15T13:18:45;101977.25;;;21.99;63.27
250;BME280;109;19.806;-70.704;2023-02-15T13:21:16;101984.44;;;21.97;63.06
250;BME280;109;19.806;-70.704;2023-02-15T13:24:00;101983.44;;;22.01;62.86
250;BME280;109;19.806;-70.704;2023-02-15T13:26:31;101998.31;;;22.11;64.09
250;BME280;109;19.806;-70.704;2023-02-15T13:29:15;101990.53;;;22.40;63.85
250;BME280;109;19.806;-70.704;2023-02-15T13:31:44;101987.94;;;22.73;64.32
250;BME280;109;19.806;-70.704;2023-02-15T13:34:36;101992.63;;;22.98;63.93
250;BME280;109;19.806;-70.704;2023-02-15T13:40:02;101991.88;;;23.26;63.46
250;BME280;109;19.806;-70.704;2023-02-15T13:42:39;101986.53;;;22.92;63.66
250;BME280;109;19.806;-70.704;2023-02-15T13:53:48;102003.06;;;23.99;63.09
250;BME280;109;19.806;-70.704;2023-02-15T13:59:06;102003.53;;;24.13;63.11
250;BME280;109;19.806;-70.704;2023-02-15T14:01:58;102003.22;;;24.24;62.36
250;BME280;109;19.806;-70.704;2023-02-15T14:10:38;102008.69;;;24.47;60.78
250;BME280;109;19.806;-70.704;2023-02-15T14:24:47;102015.53;;;24.84;59.40
250;BME280;109;19.806;-70.704;2023-02-15T14:27:31;102009.63;;;24.99;60.12
250;BME280;109;19.806;-70.704;2023-02-15T14:30:09;102016.25;;;25.14;59.35
250;BME280;109;19.806;-70.704;2023-02-15T14:32:42;102009.88;;;24.65;59.64
250;BME280;109;19.806;-70.704;2023-02-15T14:35:17;102006.00;;;24.47;60.51
250;BME280;109;19.806;-70.704;2023-02-15T14:48:50;102013.16;;;25.24;60.45
250;BME280;109;19.806;-70.704;2023-02-15T14:56:45;102006.72;;;25.78;58.61
250;BME280;109;19.806;-70.704;2023-02-15T15:01:39;102012.69;;;25.86;58.42
250;BME280;109;19.806;-70.704;2023-02-15T15:04:25;102001.34;;;25.55;58.38
250;BME280;109;19.806;-70.704;2023-02-15T15:09:29;102006.00;;;25.00;59.29
250;BME280;109;19.806;-70.704;2023-02-15T15:14:58;101991.63;;;25.02;59.83
250;BME280;109;19.806;-70.704;2023-02-15T15:23:44;101987.72;;;24.60;60.39
250;BME280;109;19.806;-70.704;2023-02-15T15:26:31;101993.03;;;24.35;60.82
250;BME280;109;19.806;-70.704;2023-02-15T15:29:06;101999.72;;;24.48;60.98
250;BME280;109;19.806;-70.704;2023-02-15T15:40:10;101993.16;;;24.02;64.25
250;BME280;109;19.806;-70.704;2023-02-15T15:46:03;101989.00;;;24.22;63.81
250;BME280;109;19.806;-70.704;2023-02-15T15:48:36;101984.56;;;24.21;63.46
250;BME280;109;19.806;-70.704;2023-02-15T15:51:21;101974.19;;;24.10;63.48
250;BME280;109;19.806;-70.704;2023-02-15T15:53:50;101984.53;;;24.22;63.69
250;BME280;109;19.806;-70.704;2023-02-15T15:56:21;101972.81;;;24.53;62.54
250;BME280;109;19.806;-70.704;2023-02-15T15:58:54;101974.72;;;24.49;61.37
250;BME280;109;19.806;-70.704;2023-02-15T16:01:39;101967.72;;;24.45;62.72
250;BME280;109;19.806;-70.704;2023-02-15T16:04:33;101961.75;;;24.90;61.37
250;BME280;109;19.806;-70.704;2023-02-15T16:10:03;101961.38;;;24.48;61.49
250;BME280;109;19.806;-70.704;2023-02-15T16:12:34;101951.88;;;24.39;62.09
250;BME280;109;19.806;-70.704;2023-02-15T16:15:18;101943.28;;;24.56;62.25
250;BME280;109;19.806;-70.704;2023-02-15T16:17:49;101948.88;;;24.48;62.56
250;BME280;109;19.806;-70.704;2023-02-15T16:20:26;101938.91;;;24.27;63.62
250;BME280;109;19.806;-70.704;2023-02-15T16:25:58;101944.63;;;24.15;63.53
250;BME280;109;19.806;-70.704;2023-02-15T16:28:28;101928.19;;;24.53;63.94
250;BME280;109;19.806;-70.704;2023-02-15T16:31:10;101929.66;;;24.62;63.82
250;BME280;109;19.806;-70.704;2023-02-15T16:33:39;101924.63;;;25.04;62.17
250;BME280;109;19.806;-70.704;2023-02-15T16:36:11;101918.69;;;25.19;60.51
250;BME280;109;19.806;-70.704;2023-02-15T16:38:57;101925.34;;;25.09;60.50
250;BME280;109;19.806;-70.704;2023-02-15T16:41:31;101913.28;;;25.21;59.99
250;BME280;109;19.806;-70.704;2023-02-15T16:44:00;101919.53;;;25.44;59.48
250;BME280;109;19.806;-70.704;2023-02-15T16:46:40;101915.63;;;25.53;59.59
250;BME280;109;19.806;-70.704;2023-02-15T16:49:23;101909.22;;;25.57;60.29
250;BME280;109;19.806;-70.704;2023-02-15T16:51:58;101913.66;;;25.58;59.68
250;BME280;109;19.806;-70.704;2023-02-15T16:54:27;101898.06;;;25.68;59.47
250;BME280;109;19.806;-70.704;2023-02-15T16:56:55;101900.00;;;25.64;60.16
250;BME280;109;19.806;-70.704;2023-02-15T16:59:41;101891.22;;;25.61;59.20
250;BME280;109;19.806;-70.704;2023-02-15T17:02:18;101894.50;;;25.45;59.25
250;BME280;109;19.806;-70.704;2023-02-15T17:04:45;101900.69;;;25.48;59.40
250;BME280;109;19.806;-70.704;2023-02-15T17:07:27;101883.56;;;25.50;59.90
250;BME280;109;19.806;-70.704;2023-02-15T17:09:56;101884.06;;;25.61;60.00
250;BME280;109;19.806;-70.704;2023-02-15T17:15:41;101869.38;;;25.48;59.90
250;BME280;109;19.806;-70.704;2023-02-15T17:18:22;101866.06;;;25.41;61.24
250;BME280;109;19.806;-70.704;2023-02-15T17:20:51;101854.56;;;25.38;59.83
250;BME280;109;19.806;-70.704;2023-02-15T17:23:42;101854.28;;;25.45;59.25
250;BME280;109;19.806;-70.704;2023-02-15T17:26:13;101845.53;;;25.40;59.31